Argyle, FL

8:59 AM CDT on July 23, 2014 (GMT -0500)
West End (Foy) (KFLDEFUN7) Elev 272 ft | 30.72 °N, 86.13 °W | Change Station

Current weather conditions updated 6 minutes ago

Rain
Rain
82.9 °F
Feels Like 97 °F
N
0.0
Wind Variable Wind from WNW

Today is forecast to be nearly the same temperature as yesterday.

Today
High -- | Low -- °F
--% Chance of Precip.
Yesterday
High -- | Low -- °F
Precip. -- in
5:56 AM 7:44 PM
Waning Crescent, 10% visible
Pressure 30.10 in
Visibility 10.0 miles
Clouds Scattered Clouds 1700 ft
Heat Index 97 °F
Dew Point 82 °F
Humidity 98%
Rainfall 0.00 in
Snow Depth Not available.
UV 4 out of 12
Pollen 3.30 out of 12
Air Quality Not available.
Flu Activity Not available.
METAR K54J 231355Z AUTO 16003KT 10SM SCT017 26/24 A3010 RMK AO2 T02620238

More Conditions Fewer Conditions

Pressure 30.10 in
Visibility 10.0 miles
Clouds Scattered Clouds 1700 ft
Heat Index 97 °F
Dew Point 82 °F
Humidity 98%
Rainfall 0.00 in
Snow Depth Not available.
UV 4 out of 12
Pollen 3.30 out of 12
Air Quality Not available.
Flu Activity Not available.
METAR K54J 231355Z AUTO 16003KT 10SM SCT017 26/24 A3010 RMK AO2 T02620238

More Conditions Fewer Conditions

10-Day Weather Forecast

Almanac

Astronomy

Jul. 23, 2014 Rise Set
Actual Time 5:56 AM CDT 7:44 PM CDT
Civil Twilight 5:29 AM CDT 8:11 PM CDT
Nautical Twilight 4:57 AM CDT 8:43 PM CDT
Astronomical Twilight 4:23 AM CDT 9:17 PM CDT
Moon 3:13 AM CDT 5:14 PM CDT
Length of Visible Light 14h 41m
Length of Day
13h 48m
Tomorrow will be 1m 10s shorter.
Waning Crescent, 10% of the Moon is Illuminated
Today
Waning Crescent
Jul 26
New
Aug 3
First Quarter
Aug 10
Full
Aug 17
Last Quarter

Today's Extremes

State Highs State Lows

Community

WunderPhotos

Upload Photos

1,736,594 photos uploaded!

Nearby

Snow Depth

Station Depth Elevation
No new snow has been reported.

Earthquake Activity

City Distance Mag. Time & Date
No recent earthquake activity has been reported nearby.
Minimum magnitude displayed is 2.5.

Coastal Water Temperatures

Place Temperature
No Stations Reporting

Nearby Weather Stations

Station Location Temp. Heat Index Dew Point Humidity Wind Precip. Elev Updated Type
West End (Foy), DeFuniak Springs, FL 82.9 °F 97 °F 82 °F 98% WNW  at  0.0 mph - / hr 272 ft 8:52 AM CDT Normal
Windmaster Farms, DeFuniak Springs, FL 79.5 °F 85 °F 78 °F 95% NNE  at  0.0 mph 0.00 in / hr 237 ft 8:59 AM CDT Rapid Fire
DeFuniak Springs, FL 82.3 °F 91 °F 78 °F 86% WSW  at  1.0 mph 0.00 in / hr 275 ft 8:55 AM CDT Normal
Waterview Cove, Freeport, FL 80.2 °F 87 °F 78 °F 94% SSW  at  0.0 mph 0.00 in / hr 18 ft 8:59 AM CDT Rapid Fire
Bob's Backyard Weather, Bonifay, FL 82.3 °F 90 °F 77 °F 83% North  at  1.0 mph 0.00 in / hr 131 ft 9:43 AM EDT Normal

Show More Stations Show Fewer Stations